Stateline, NV

8:46 AM PST on February 23, 2017 (GMT -0800)
MKAHNV | | Change Station

Elev 6304 ft 38.97 °N, 119.93 °W | Updated 11 minutes ago

Overcast
Overcast
20.0 °F
Feels Like 20.0 °F
N
3.0
Wind Variable Wind from South
Gusts 5.0 mph

Today
High -- | Low -- °F
--% Chance of Precip.
Yesterday
High -- | Low -- °F
Precip. -- in
Pressure 30.06 in
Visibility 10.0 miles
Clouds Mostly Cloudy 4700 ft
Overcast 7500 ft
Dew Point 13.0 °F
Humidity 73%
Rainfall 0.09 in
Snow Depth Not available.
6:40 AM 5:46 PM
Waning Crescent, 9% visible
METAR KTVL 231553Z AUTO 17003KT 10SM BKN047 OVC075 M08/M10 A2995 RMK AO2 SLP180 T10831100
Pressure 30.06 in
Visibility 10.0 miles
Clouds Mostly Cloudy 4700 ft
Overcast 7500 ft
Dew Point 13.0 °F
Humidity 73%
Rainfall 0.09 in
Snow Depth Not available.
6:40 AM 5:46 PM
Waning Crescent, 9% visible
METAR KTVL 231553Z AUTO 17003KT 10SM BKN047 OVC075 M08/M10 A2995 RMK AO2 SLP180 T10831100

Get Your Daily Forecast Email!

Thanks for signing up!

Be on the lookout for a verification email in your inbox.

You'll start receiving the daily forecast at 8 AM.

×

10-Day Weather Forecast

Almanac

Astronomy

Feb. 23, 2017 Rise Set
Actual Time
Civil Twilight
Nautical Twilight
Astronomical Twilight
Moon
Length of Visible Light
Length of Day
Tomorrow will be .
, % of the Moon is Illuminated

Today's Extremes

State Highs State Lows

Community

WunderPhotos

Upload Photos

1,962,540 photos uploaded!

WunderBlog® & News

Nearby

Air Quality

  Air Quality AQ Index Pollutant
Not available.

Snow Depth

Station Depth Elevation

Earthquake Activity

City Distance Mag. Time & Date
Minimum magnitude displayed is 2.5.

Coastal Water Temperatures

Place Temperature

Stations

Nearby Weather Stations

Station Location Temp. Windchill Dew Point Humidity Wind Precip. Elev Updated Type
                   

Watches & Warnings

There are currently no watches in effect.